Terminal Aerodrome Forecast
Issued by NWS

Current Version | Previous Version | Graphics & Text | Print | Product List | Glossary On
Versions: 1 2 3 4 5 6 7 8 9 10 11 12 13 14 15 16
000
FTUS41 KPBZ 221300 AAB
TAFHLG
TAF AMD
KHLG 221311Z 2213/2312 23008KT P6SM OVC015
      TEMPO 2213/2214 4SM -SHRA
     FM221800 33012G20KT P6SM BKN020
     FM222100 33010G18KT P6SM BKN035
     FM230700 33007KT P6SM BKN025=

USA.gov is the U.S. government's official web portal to all federal, state and local government web resources and services.